Terminal Aerodrome Forecast
Issued by NWS Wilmington, OH

Current Version | Previous Version | Graphics & Text | Print | Product List | Glossary On
Versions: 1 2 3 4 5 6 7 8 9 10 11 12 13 14 15 16 17 18 19 20 21 22 23 24 25
495
FTUS41 KILN 220249 AAB
TAFCVG
TAF AMD
KCVG 220249Z 2203/2306 10006KT P6SM VCTS BKN050CB
     FM220800 20004KT P6SM BKN050
     FM221500 23008KT P6SM VCSH BKN050
     FM230000 28005KT P6SM SCT080=

USA.gov is the U.S. government's official web portal to all federal, state and local government web resources and services.